Time,TemperatureF,DewpointF,PressureIn,WindDirection,WindDirectionDegrees,WindSpeedMPH,WindSpeedGustMPH,Humidity,HourlyPrecipIn,Conditions,Clouds,dailyrainin,SoftwareType,DateUTC
2013-09-02 00:00:00,55.2,45.2,30.26,NW,313,0.0,0.0,69,0.00,CLR,,0.00,WeatherDisplay:10.37,2013-09-01 22:00:00,
2013-09-02 00:05:00,55.4,45.1,30.27,WNW,293,2.5,3.1,68,0.00,,,0.00,WUHU21636XXSP,2013-09-01 22:05:00,
2013-09-02 00:10:00,55.4,45.0,30.26,WNW,293,2.0,3.0,68,0.00,CLR,,0.00,WeatherDisplay:10.37,2013-09-01 22:10:00,
2013-09-02 00:15:00,55.6,45.3,30.26,NW,315,0.0,2.5,68,0.00,,,0.00,WUHU21636XXSP,2013-09-01 22:15:00,
2013-09-02 00:20:00,55.6,45.2,30.25,NW,304,0.0,1.0,68,0.00,CLR,,0.00,WeatherDisplay:10.37,2013-09-01 22:20:00,
2013-09-02 00:25:00,55.6,45.3,30.27,ESE,113,0.4,0.4,68,0.00,,,0.00,WUHU21636XXSP,2013-09-01 22:25:00,
2013-09-02 00:30:00,55.6,45.2,30.26,NNW,341,0.0,0.0,68,0.00,CLR,,0.00,WeatherDisplay:10.37,2013-09-01 22:30:00,
2013-09-02 00:35:00,55.6,45.3,30.26,NW,315,2.5,2.5,68,0.00,,,0.00,WUHU21636XXSP,2013-09-01 22:35:00,
2013-09-02 00:40:00,55.6,45.3,30.27,ESE,113,2.0,2.5,68,0.00,,,0.00,WUHU21636XXSP,2013-09-01 22:40:00,
2013-09-02 00:45:00,55.6,45.3,30.26,ESE,113,0.0,2.5,68,0.00,,,0.00,WUHU21636XXSP,2013-09-01 22:45:00,
2013-09-02 00:50:00,55.2,45.3,30.26,ESE,113,0.0,2.0,69,0.00,,,0.00,WUHU21636XXSP,2013-09-01 22:50:00,
2013-09-02 00:55:00,55.2,45.3,30.26,WNW,293,0.0,0.0,69,0.00,,,0.00,WUHU21636XXSP,2013-09-01 22:55:00,
2013-09-02 01:00:00,55.2,45.3,30.27,ESE,113,3.1,3.1,69,0.00,,,0.00,WUHU21636XXSP,2013-09-01 23:00:00,
2013-09-02 01:05:00,55.0,45.1,30.26,North,0,0.0,3.1,69,0.00,,,0.00,WUHU21636XXSP,2013-09-01 23:05:00,
2013-09-02 01:10:00,55.0,45.1,30.25,SE,135,1.1,3.1,69,0.00,,,0.00,WUHU21636XXSP,2013-09-01 23:10:00,
2013-09-02 01:15:00,55.0,45.1,30.26,NW,315,0.7,1.1,69,0.00,,,0.00,WUHU21636XXSP,2013-09-01 23:15:00,
2013-09-02 01:20:00,55.0,45.5,30.26,WNW,293,0.0,1.1,70,0.00,,,0.00,WUHU21636XXSP,2013-09-01 23:20:00,
2013-09-02 01:25:00,55.0,45.5,30.26,East,90,0.7,0.7,70,0.00,,,0.00,WUHU21636XXSP,2013-09-01 23:25:00,
2013-09-02 01:30:00,55.0,45.5,30.26,NW,315,0.0,0.7,70,0.00,,,0.00,WUHU21636XXSP,2013-09-01 23:30:00,
2013-09-02 01:35:00,54.9,45.8,30.26,ESE,113,1.8,1.8,71,0.00,,,0.00,WUHU21636XXSP,2013-09-01 23:35:00,
2013-09-02 01:40:00,54.7,45.6,30.26,NW,315,1.3,1.8,71,0.00,,,0.00,WUHU21636XXSP,2013-09-01 23:40:00,
2013-09-02 01:45:00,54.7,45.6,30.26,SE,135,0.0,1.8,71,0.00,,,0.00,WUHU21636XXSP,2013-09-01 23:45:00,
2013-09-02 01:50:00,54.7,45.6,30.26,WNW,293,2.5,2.5,71,0.00,,,0.00,WUHU21636XXSP,2013-09-01 23:50:00,
2013-09-02 01:55:00,54.7,45.6,30.26,NW,315,1.3,2.5,71,0.00,,,0.00,WUHU21636XXSP,2013-09-01 23:55:00,
2013-09-02 02:00:00,54.7,45.6,30.26,ESE,113,2.0,2.5,71,0.00,,,0.00,WUHU21636XXSP,2013-09-02 00:00:00,
2013-09-02 02:05:00,54.7,46.0,30.26,SE,135,2.2,2.2,72,0.00,,,0.00,WUHU21636XXSP,2013-09-02 00:05:00,
2013-09-02 02:10:00,54.7,46.0,30.26,NW,315,0.0,2.2,72,0.00,,,0.00,WUHU21636XXSP,2013-09-02 00:10:00,
2013-09-02 02:15:00,54.5,45.8,30.26,WNW,293,4.5,4.5,72,0.00,,,0.00,WUHU21636XXSP,2013-09-02 00:15:00,
2013-09-02 02:20:00,54.5,45.8,30.26,ESE,113,0.9,4.5,72,0.00,,,0.00,WUHU21636XXSP,2013-09-02 00:20:00,
2013-09-02 02:25:00,54.3,45.6,30.26,ESE,113,0.0,4.5,72,0.00,,,0.00,WUHU21636XXSP,2013-09-02 00:25:00,
2013-09-02 02:30:00,54.1,45.4,30.25,WNW,293,0.0,0.9,72,0.00,,,0.00,WUHU21636XXSP,2013-09-02 00:30:00,
2013-09-02 02:35:00,54.1,45.4,30.25,WNW,293,2.5,2.5,72,0.00,,,0.00,WUHU21636XXSP,2013-09-02 00:35:00,
2013-09-02 02:40:00,54.1,45.4,30.25,SSE,158,0.0,2.5,72,0.00,,,0.00,WUHU21636XXSP,2013-09-02 00:40:00,
2013-09-02 02:45:00,54.0,45.3,30.25,SE,135,0.0,2.5,72,0.00,,,0.00,WUHU21636XXSP,2013-09-02 00:45:00,
2013-09-02 02:50:00,53.8,45.1,30.25,SE,135,0.0,0.0,72,0.00,,,0.00,WUHU21636XXSP,2013-09-02 00:50:00,
2013-09-02 02:55:00,53.8,45.1,30.25,SE,135,2.2,2.2,72,0.00,,,0.00,WUHU21636XXSP,2013-09-02 00:55:00,
2013-09-02 03:00:00,53.8,45.1,30.25,ESE,113,1.6,2.2,72,0.00,,,0.00,WUHU21636XXSP,2013-09-02 01:00:00,
2013-09-02 03:05:00,53.8,45.1,30.25,WNW,293,0.0,2.2,72,0.00,,,0.00,WUHU21636XXSP,2013-09-02 01:05:00,
2013-09-02 03:10:00,53.8,45.1,30.25,SE,135,0.0,1.6,72,0.00,,,0.00,WUHU21636XXSP,2013-09-02 01:10:00,
2013-09-02 03:15:00,53.8,45.1,30.25,SE,135,0.0,0.0,72,0.00,,,0.00,WUHU21636XXSP,2013-09-02 01:15:00,
2013-09-02 03:20:00,53.6,44.9,30.25,ESE,113,0.0,0.0,72,0.00,,,0.00,WUHU21636XXSP,2013-09-02 01:20:00,
2013-09-02 03:25:00,53.6,44.9,30.25,ESE,113,0.0,0.0,72,0.00,,,0.00,WUHU21636XXSP,2013-09-02 01:25:00,
2013-09-02 03:30:00,53.4,45.1,30.24,ESE,113,4.3,4.3,73,0.00,,,0.00,WUHU21636XXSP,2013-09-02 01:30:00,
2013-09-02 03:35:00,53.4,45.1,30.24,ESE,113,2.2,4.3,73,0.00,,,0.00,WUHU21636XXSP,2013-09-02 01:35:00,
2013-09-02 03:40:00,53.4,45.1,30.24,ESE,113,2.2,4.3,73,0.00,,,0.00,WUHU21636XXSP,2013-09-02 01:40:00,
2013-09-02 03:45:00,53.2,44.9,30.24,ESE,113,4.3,4.3,73,0.00,,,0.00,WUHU21636XXSP,2013-09-02 01:45:00,
2013-09-02 03:50:00,53.2,44.9,30.24,SE,135,0.0,4.3,73,0.00,,,0.00,WUHU21636XXSP,2013-09-02 01:50:00,
2013-09-02 03:55:00,53.2,45.2,30.24,ESE,113,0.0,4.3,74,0.00,,,0.00,WUHU21636XXSP,2013-09-02 01:55:00,
2013-09-02 04:00:00,53.2,45.2,30.24,ESE,113,2.2,2.2,74,0.00,,,0.00,WUHU21636XXSP,2013-09-02 02:00:00,
2013-09-02 04:05:00,53.2,45.2,30.24,ESE,113,0.0,2.2,74,0.00,,,0.00,WUHU21636XXSP,2013-09-02 02:05:00,
2013-09-02 04:10:00,53.2,45.2,30.24,SSE,158,2.5,2.5,74,0.00,,,0.00,WUHU21636XXSP,2013-09-02 02:10:00,
2013-09-02 04:15:00,53.2,45.2,30.24,SE,135,0.0,2.5,74,0.00,,,0.00,WUHU21636XXSP,2013-09-02 02:15:00,
2013-09-02 04:20:00,53.2,45.2,30.23,WNW,293,0.0,2.5,74,0.00,,,0.00,WUHU21636XXSP,2013-09-02 02:20:00,
2013-09-02 04:25:00,53.2,45.2,30.23,East,90,0.0,0.0,74,0.00,,,0.00,WUHU21636XXSP,2013-09-02 02:25:00,
2013-09-02 04:30:00,53.2,45.2,30.23,ESE,113,0.4,0.4,74,0.00,,,0.00,WUHU21636XXSP,2013-09-02 02:30:00,
2013-09-02 04:35:00,53.2,45.2,30.23,SE,135,1.1,1.1,74,0.00,,,0.00,WUHU21636XXSP,2013-09-02 02:35:00,
2013-09-02 04:40:00,53.4,45.4,30.23,SE,135,3.1,3.1,74,0.00,,,0.00,WUHU21636XXSP,2013-09-02 02:40:00,
2013-09-02 04:45:00,53.4,45.4,30.23,WNW,293,0.0,3.1,74,0.00,,,0.00,WUHU21636XXSP,2013-09-02 02:45:00,
2013-09-02 04:50:00,53.4,45.4,30.23,SE,135,3.6,3.6,74,0.00,,,0.00,WUHU21636XXSP,2013-09-02 02:50:00,
2013-09-02 04:55:00,53.6,45.6,30.22,SE,135,0.9,3.6,74,0.00,,,0.00,WUHU21636XXSP,2013-09-02 02:55:00,
2013-09-02 05:00:00,53.6,45.6,30.22,SE,135,1.3,3.6,74,0.00,,,0.00,WUHU21636XXSP,2013-09-02 03:00:00,
2013-09-02 05:05:00,53.6,45.6,30.22,WNW,293,1.1,1.3,74,0.00,,,0.00,WUHU21636XXSP,2013-09-02 03:05:00,
2013-09-02 05:10:00,53.6,45.6,30.22,West,270,0.0,1.3,74,0.00,,,0.00,WUHU21636XXSP,2013-09-02 03:10:00,
2013-09-02 05:15:00,53.8,45.8,30.22,SE,135,1.6,1.6,74,0.00,,,0.00,WUHU21636XXSP,2013-09-02 03:15:00,
2013-09-02 05:20:00,53.8,45.8,30.22,SE,135,0.9,1.6,74,0.00,,,0.00,WUHU21636XXSP,2013-09-02 03:20:00,
2013-09-02 05:25:00,53.8,45.8,30.22,SE,135,1.6,1.6,74,0.00,,,0.00,WUHU21636XXSP,2013-09-02 03:25:00,
2013-09-02 05:30:00,53.8,45.8,30.22,ENE,68,0.0,1.6,74,0.00,,,0.00,WUHU21636XXSP,2013-09-02 03:30:00,
2013-09-02 05:35:00,53.8,45.8,30.22,SE,135,3.6,3.6,74,0.00,,,0.00,WUHU21636XXSP,2013-09-02 03:35:00,
2013-09-02 05:40:00,53.8,45.8,30.21,SE,135,1.1,3.6,74,0.00,,,0.00,WUHU21636XXSP,2013-09-02 03:40:00,
2013-09-02 05:45:00,53.8,45.8,30.21,SE,135,1.3,3.6,74,0.00,,,0.00,WUHU21636XXSP,2013-09-02 03:45:00,
2013-09-02 05:50:00,53.8,45.8,30.21,ESE,113,4.9,4.9,74,0.00,,,0.00,WUHU21636XXSP,2013-09-02 03:50:00,
2013-09-02 05:55:00,54.0,46.0,30.21,ESE,113,0.0,4.9,74,0.00,,,0.00,WUHU21636XXSP,2013-09-02 03:55:00,
2013-09-02 06:00:00,54.1,46.1,30.21,ESE,113,4.3,4.9,74,0.00,,,0.00,WUHU21636XXSP,2013-09-02 04:00:00,
2013-09-02 06:05:00,54.1,46.1,30.21,SE,135,1.3,4.3,74,0.00,,,0.00,WUHU21636XXSP,2013-09-02 04:05:00,
2013-09-02 06:10:00,54.1,46.1,30.21,SE,135,0.0,4.3,74,0.00,,,0.00,WUHU21636XXSP,2013-09-02 04:10:00,
2013-09-02 06:15:00,54.1,46.1,30.22,East,90,0.0,1.3,74,0.00,,,0.00,WUHU21636XXSP,2013-09-02 04:15:00,
2013-09-02 06:20:00,54.1,46.1,30.22,SE,135,1.6,1.6,74,0.00,,,0.00,WUHU21636XXSP,2013-09-02 04:20:00,
2013-09-02 06:25:00,54.1,46.1,30.21,SE,135,0.4,1.6,74,0.00,,,0.00,WUHU21636XXSP,2013-09-02 04:25:00,
2013-09-02 06:30:00,54.1,46.1,30.21,SE,135,0.0,1.6,74,0.00,,,0.00,WUHU21636XXSP,2013-09-02 04:30:00,
2013-09-02 06:35:00,54.1,46.1,30.21,SE,135,2.9,2.9,74,0.00,,,0.00,WUHU21636XXSP,2013-09-02 04:35:00,
2013-09-02 06:40:00,54.1,46.1,30.21,ESE,113,3.4,3.4,74,0.00,,,0.00,WUHU21636XXSP,2013-09-02 04:40:00,
2013-09-02 06:45:00,54.1,46.1,30.21,WNW,293,3.6,3.6,74,0.00,,,0.00,WUHU21636XXSP,2013-09-02 04:45:00,
2013-09-02 06:50:00,54.1,46.1,30.21,SE,135,4.3,4.3,74,0.00,,,0.00,WUHU21636XXSP,2013-09-02 04:50:00,
2013-09-02 06:55:00,54.1,46.1,30.22,SE,135,0.0,4.3,74,0.00,,,0.00,WUHU21636XXSP,2013-09-02 04:55:00,
2013-09-02 07:00:00,54.1,46.1,30.22,SE,135,0.7,4.3,74,0.00,,,0.00,WUHU21636XXSP,2013-09-02 05:00:00,
2013-09-02 07:05:00,54.1,46.1,30.22,NW,315,0.0,0.7,74,0.00,,,0.00,WUHU21636XXSP,2013-09-02 05:05:00,
2013-09-02 07:10:00,54.1,46.4,30.22,WNW,293,0.0,0.7,75,0.00,,,0.00,WUHU21636XXSP,2013-09-02 05:10:00,
2013-09-02 07:15:00,54.1,46.4,30.22,WNW,293,0.0,0.0,75,0.00,,,0.00,WUHU21636XXSP,2013-09-02 05:15:00,
2013-09-02 07:20:00,54.1,46.4,30.21,ESE,113,3.1,3.1,75,0.00,,,0.00,WUHU21636XXSP,2013-09-02 05:20:00,
2013-09-02 07:25:00,54.1,46.4,30.21,ESE,113,0.0,3.1,75,0.00,,,0.00,WUHU21636XXSP,2013-09-02 05:25:00,
2013-09-02 07:30:00,54.1,46.8,30.21,ESE,113,1.1,3.1,76,0.00,,,0.00,WUHU21636XXSP,2013-09-02 05:30:00,
2013-09-02 07:35:00,54.1,46.8,30.21,ESE,113,0.7,1.1,76,0.00,,,0.00,WUHU21636XXSP,2013-09-02 05:35:00,
2013-09-02 07:40:00,54.1,46.8,30.21,ESE,113,0.9,1.1,76,0.00,,,0.00,WUHU21636XXSP,2013-09-02 05:40:00,
2013-09-02 07:45:00,54.1,46.8,30.20,SE,135,0.0,0.9,76,0.00,,,0.00,WUHU21636XXSP,2013-09-02 05:45:00,
2013-09-02 07:50:00,54.1,46.8,30.20,WNW,293,0.0,0.9,76,0.00,,,0.00,WUHU21636XXSP,2013-09-02 05:50:00,
2013-09-02 07:55:00,54.3,47.3,30.21,ESE,113,2.7,2.7,77,0.00,,,0.00,WUHU21636XXSP,2013-09-02 05:55:00,
2013-09-02 08:00:00,54.3,47.0,30.21,ESE,113,4.5,4.5,76,0.00,,,0.00,WUHU21636XXSP,2013-09-02 06:00:00,
2013-09-02 08:05:00,54.5,47.2,30.21,SE,135,2.0,4.5,76,0.00,,,0.00,WUHU21636XXSP,2013-09-02 06:05:00,
2013-09-02 08:10:00,54.7,47.4,30.21,NW,315,0.0,4.5,76,0.00,,,0.00,WUHU21636XXSP,2013-09-02 06:10:00,
2013-09-02 08:15:00,54.9,47.2,30.21,ESE,113,2.7,2.7,75,0.00,,,0.00,WUHU21636XXSP,2013-09-02 06:15:00,
2013-09-02 08:20:00,55.0,47.3,30.21,SE,135,2.0,2.7,75,0.00,,,0.00,WUHU21636XXSP,2013-09-02 06:20:00,
2013-09-02 08:25:00,55.2,47.5,30.21,ESE,113,5.1,5.1,75,0.00,,,0.00,WUHU21636XXSP,2013-09-02 06:25:00,
2013-09-02 08:30:00,55.4,47.7,30.21,SE,135,2.7,5.1,75,0.00,,,0.00,WUHU21636XXSP,2013-09-02 06:30:00,
2013-09-02 08:35:00,55.8,47.7,30.21,ESE,113,0.0,5.1,74,0.00,,,0.00,WUHU21636XXSP,2013-09-02 06:35:00,
2013-09-02 08:40:00,56.1,48.0,30.20,NW,315,5.1,5.1,74,0.00,,,0.00,WUHU21636XXSP,2013-09-02 06:40:00,
2013-09-02 08:45:00,56.3,48.2,30.20,WNW,293,3.8,5.1,74,0.00,,,0.00,WUHU21636XXSP,2013-09-02 06:45:00,
2013-09-02 08:50:00,56.7,48.2,30.20,NW,315,5.4,5.4,73,0.00,,,0.00,WUHU21636XXSP,2013-09-02 06:50:00,
2013-09-02 08:55:00,57.2,48.7,30.21,West,270,7.8,8.3,73,0.00,,,0.00,WUHU21636XXSP,2013-09-02 06:55:00,
2013-09-02 09:00:00,57.6,48.8,30.20,WNW,293,2.9,8.3,72,0.00,,,0.00,WUHU21636XXSP,2013-09-02 07:00:00,
2013-09-02 09:05:00,58.1,48.9,30.21,WNW,293,1.8,8.3,71,0.00,,,0.00,WUHU21636XXSP,2013-09-02 07:05:00,
2013-09-02 09:10:00,58.3,49.1,30.20,WNW,293,3.4,3.4,71,0.00,,,0.00,WUHU21636XXSP,2013-09-02 07:10:00,
2013-09-02 09:15:00,58.8,48.8,30.20,WNW,293,2.2,3.4,69,0.00,,,0.00,WUHU21636XXSP,2013-09-02 07:15:00,
2013-09-02 09:20:00,59.2,49.2,30.21,SE,135,1.1,3.4,69,0.00,,,0.00,WUHU21636XXSP,2013-09-02 07:20:00,
2013-09-02 09:25:00,59.2,48.8,30.20,WNW,293,3.8,7.6,68,0.00,,,0.00,WUHU21636XXSP,2013-09-02 07:25:00,
2013-09-02 09:30:00,59.4,49.0,30.20,NW,315,4.7,7.6,68,0.00,,,0.00,WUHU21636XXSP,2013-09-02 07:30:00,
2013-09-02 09:35:00,59.5,48.7,30.20,WNW,293,2.7,7.6,67,0.00,,,0.00,WUHU21636XXSP,2013-09-02 07:35:00,
2013-09-02 09:40:00,59.5,48.7,30.21,NW,315,2.5,4.7,67,0.00,,,0.00,WUHU21636XXSP,2013-09-02 07:40:00,
2013-09-02 09:45:00,59.5,49.1,30.21,NW,315,2.0,2.7,68,0.00,,,0.00,WUHU21636XXSP,2013-09-02 07:45:00,
2013-09-02 09:50:00,59.7,48.9,30.21,WNW,293,6.7,9.6,67,0.00,,,0.00,WUHU21636XXSP,2013-09-02 07:50:00,
2013-09-02 09:55:00,60.1,48.8,30.20,WNW,293,3.6,9.6,66,0.00,,,0.00,WUHU21636XXSP,2013-09-02 07:55:00,
2013-09-02 10:00:00,60.3,49.0,30.21,WNW,293,1.1,9.6,66,0.00,,,0.00,WUHU21636XXSP,2013-09-02 08:00:00,
2013-09-02 10:05:00,61.0,49.7,30.21,WNW,293,0.0,3.6,66,0.00,,,0.00,WUHU21636XXSP,2013-09-02 08:05:00,
2013-09-02 10:10:00,61.5,49.4,30.21,NW,315,8.5,9.6,64,0.00,,,0.00,WUHU21636XXSP,2013-09-02 08:10:00,
2013-09-02 10:15:00,61.7,49.1,30.21,WNW,293,1.8,9.6,63,0.00,,,0.00,WUHU21636XXSP,2013-09-02 08:15:00,
2013-09-02 10:20:00,61.9,48.9,30.20,NW,315,6.5,13.6,62,0.00,,,0.00,WUHU21636XXSP,2013-09-02 08:20:00,
2013-09-02 10:25:00,62.1,48.2,30.20,WNW,293,3.1,13.6,60,0.00,,,0.00,WUHU21636XXSP,2013-09-02 08:25:00,
2013-09-02 10:30:00,62.8,48.4,30.21,WNW,293,2.0,13.6,59,0.00,,,0.00,WUHU21636XXSP,2013-09-02 08:30:00,
2013-09-02 10:35:00,62.8,48.4,30.21,WNW,293,3.6,7.4,59,0.00,,,0.00,WUHU21636XXSP,2013-09-02 08:35:00,
2013-09-02 10:40:00,63.0,48.6,30.21,ESE,113,4.0,7.4,59,0.00,,,0.00,WUHU21636XXSP,2013-09-02 08:40:00,
2013-09-02 10:45:00,62.8,48.4,30.21,NW,315,4.0,8.1,59,0.00,,,0.00,WUHU21636XXSP,2013-09-02 08:45:00,
2013-09-02 10:50:00,62.8,48.8,30.21,NW,315,3.8,8.1,60,0.00,,,0.00,WUHU21636XXSP,2013-09-02 08:50:00,
2013-09-02 10:55:00,62.8,48.8,30.21,WNW,293,3.6,8.1,60,0.00,,,0.00,WUHU21636XXSP,2013-09-02 08:55:00,
2013-09-02 11:00:00,62.8,47.5,30.20,NNW,338,4.0,4.0,57,0.00,,,0.00,WUHU21636XXSP,2013-09-02 09:00:00,
2013-09-02 11:05:00,62.8,47.9,30.20,WNW,293,4.9,4.9,58,0.00,,,0.00,WUHU21636XXSP,2013-09-02 09:05:00,
2013-09-02 11:10:00,62.8,47.9,30.20,NW,315,3.8,4.9,58,0.00,,,0.00,WUHU21636XXSP,2013-09-02 09:10:00,
2013-09-02 11:15:00,62.8,47.9,30.20,SE,135,2.9,4.9,58,0.00,,,0.00,WUHU21636XXSP,2013-09-02 09:15:00,
2013-09-02 11:20:00,63.0,48.6,30.20,East,90,0.0,3.8,59,0.00,,,0.00,WUHU21636XXSP,2013-09-02 09:20:00,
2013-09-02 11:33:00,64.0,48.4,30.19,NW,315,9.8,9.8,57,0.00,,,0.00,WUHU21636XXSP,2013-09-02 09:33:00,
2013-09-02 11:38:00,64.2,48.6,30.20,WNW,292,2.9,14.3,57,0.00,,,0.00,WUHU21636XXSP,2013-09-02 09:38:00,
2013-09-02 11:43:00,64.6,48.7,30.19,NW,315,4.9,14.3,57,0.00,,,0.00,WUHU21636XXSP,2013-09-02 09:43:00,
2013-09-02 11:48:00,64.8,48.6,30.19,WNW,292,2.7,4.9,56,0.00,,,0.00,WUHU21636XXSP,2013-09-02 09:48:00,
2013-09-02 11:53:00,64.9,49.1,30.19,WNW,292,4.7,6.5,57,0.00,,,0.00,WUHU21636XXSP,2013-09-02 09:53:00,
2013-09-02 12:00:00,65.8,50.3,30.19,WNW,293,3.4,6.5,57,0.00,,,0.00,WUHU21636XXSP,2013-09-02 10:00:00,
2013-09-02 12:05:00,66.4,50.3,30.19,WNW,293,2.5,4.0,56,0.00,,,0.00,WUHU21636XXSP,2013-09-02 10:05:00,
2013-09-02 12:10:00,66.4,50.2,30.18,WNW,292,2.0,4.0,56,0.00,SCT,,0.00,WeatherDisplay:10.37,2013-09-02 10:10:00,
2013-09-02 12:15:00,64.9,49.9,30.19,NW,315,2.0,11.0,58,0.00,,,0.00,WUHU21636XXSP,2013-09-02 10:15:00,
2013-09-02 12:20:00,64.9,49.9,30.18,WNW,293,1.3,11.0,58,0.00,,,0.00,WUHU21636XXSP,2013-09-02 10:20:00,
2013-09-02 12:21:00,64.9,49.8,30.17,WNW,297,1.0,12.0,58,0.00,SCT,,0.00,WeatherDisplay:10.37,2013-09-02 10:21:00,
2013-09-02 12:25:00,64.9,49.4,30.19,NNW,338,3.4,3.4,57,0.00,,,0.00,WUHU21636XXSP,2013-09-02 10:25:00,
2013-09-02 12:30:00,64.9,49.4,30.18,WNW,293,4.0,6.5,57,0.00,,,0.00,WUHU21636XXSP,2013-09-02 10:30:00,
2013-09-02 12:35:00,64.8,49.3,30.18,NW,315,3.1,6.5,57,0.00,,,0.00,WUHU21636XXSP,2013-09-02 10:35:00,
2013-09-02 12:40:00,64.8,49.2,30.17,NW,304,3.0,7.0,57,0.00,SCT,,0.00,WeatherDisplay:10.37,2013-09-02 10:40:00,
2013-09-02 12:45:00,65.3,49.3,30.18,NW,315,7.6,12.5,56,0.00,,,0.00,WUHU21636XXSP,2013-09-02 10:45:00,
2013-09-02 12:50:00,65.1,49.5,30.17,WNW,298,2.0,13.0,57,0.00,BKN,,0.00,WeatherDisplay:10.37,2013-09-02 10:50:00,
2013-09-02 12:55:00,65.7,49.7,30.17,North,0,3.1,12.5,56,0.00,,,0.00,WUHU21636XXSP,2013-09-02 10:55:00,
2013-09-02 13:00:00,65.8,49.7,30.16,NNW,335,5.0,5.0,56,0.00,BKN,,0.00,WeatherDisplay:10.37,2013-09-02 11:00:00,
2013-09-02 13:05:00,66.6,50.0,30.17,WNW,293,3.8,8.3,55,0.00,,,0.00,WUHU21636XXSP,2013-09-02 11:05:00,
2013-09-02 13:10:00,66.0,50.0,30.17,North,0,4.7,9.4,56,0.00,,,0.00,WUHU21636XXSP,2013-09-02 11:10:00,
2013-09-02 13:15:00,65.8,49.8,30.17,SSE,158,5.6,14.5,56,0.00,,,0.00,WUHU21636XXSP,2013-09-02 11:15:00,
2013-09-02 13:20:00,65.8,50.3,30.18,WNW,293,6.7,14.5,57,0.00,,,0.00,WUHU21636XXSP,2013-09-02 11:20:00,
2013-09-02 13:21:00,65.8,49.7,30.17,ESE,103,6.0,15.0,56,0.00,SCT,,0.00,WeatherDisplay:10.37,2013-09-02 11:21:00,
2013-09-02 13:25:00,65.5,50.0,30.18,NW,315,1.8,14.5,57,0.00,,,0.00,WUHU21636XXSP,2013-09-02 11:25:00,
2013-09-02 13:30:00,66.0,50.0,30.17,WNW,293,3.6,8.5,56,0.00,,,0.00,WUHU21636XXSP,2013-09-02 11:30:00,
2013-09-02 13:31:00,66.0,49.9,30.16,West,262,3.0,8.0,56,0.00,SCT,,0.00,WeatherDisplay:10.37,2013-09-02 11:31:00,
2013-09-02 13:35:00,65.8,50.3,30.17,ENE,68,2.0,3.6,57,0.00,,,0.00,WUHU21636XXSP,2013-09-02 11:35:00,
2013-09-02 13:40:00,65.5,50.3,30.16,NNW,344,5.0,5.0,58,0.00,SCT,,0.00,WeatherDisplay:10.37,2013-09-02 11:40:00,
2013-09-02 13:45:00,64.9,49.4,30.16,NW,315,8.7,10.5,57,0.00,,,0.00,WUHU21636XXSP,2013-09-02 11:45:00,
2013-09-02 13:50:00,64.9,48.9,30.17,SSE,158,7.4,13.2,56,0.00,,,0.00,WUHU21636XXSP,2013-09-02 11:50:00,
2013-09-02 13:51:00,64.9,49.3,30.16,NNW,330,9.0,11.0,57,0.00,SCT,,0.00,WeatherDisplay:10.37,2013-09-02 11:51:00,
2013-09-02 13:55:00,64.9,48.9,30.17,WNW,293,4.5,13.2,56,0.00,,,0.00,WUHU21636XXSP,2013-09-02 11:55:00,
2013-09-02 14:00:00,64.9,48.9,27.97,SW,231,5.0,13.0,56,0.00,SCT,,0.00,WeatherDisplay:10.37,2013-09-02 12:00:00,
2013-09-02 14:05:00,65.1,49.6,30.16,NW,315,5.4,9.6,57,0.00,,,0.00,WUHU21636XXSP,2013-09-02 12:05:00,
2013-09-02 14:10:00,64.9,49.3,30.16,NW,309,6.0,10.0,57,0.00,SCT,,0.00,WeatherDisplay:10.37,2013-09-02 12:10:00,
2013-09-02 14:15:00,64.6,49.6,30.17,WNW,293,7.4,10.1,58,0.00,,,0.00,WUHU21636XXSP,2013-09-02 12:15:00,
2013-09-02 14:20:00,64.2,49.2,30.17,NNE,23,5.4,11.2,58,0.00,,,0.00,WUHU21636XXSP,2013-09-02 12:20:00,
2013-09-02 14:25:00,64.0,49.5,30.17,WNW,293,6.9,11.4,59,0.00,,,0.00,WUHU21636XXSP,2013-09-02 12:25:00,
2013-09-02 14:30:00,64.0,49.4,30.16,NNW,330,7.0,12.0,59,0.00,SCT,,0.00,WeatherDisplay:10.37,2013-09-02 12:30:00,
2013-09-02 14:35:00,64.0,50.0,30.16,NW,315,2.2,11.4,60,0.00,,,0.00,WUHU21636XXSP,2013-09-02 12:35:00,
2013-09-02 14:40:00,63.9,49.2,30.16,NW,315,7.0,8.0,59,0.00,SCT,,0.00,WeatherDisplay:10.37,2013-09-02 12:40:00,
2013-09-02 14:45:00,63.9,49.9,30.17,WNW,293,2.7,7.6,60,0.00,,,0.00,WUHU21636XXSP,2013-09-02 12:45:00,
2013-09-02 14:50:00,63.9,49.7,30.16,NW,307,2.0,8.0,60,0.00,BKN,,0.00,WeatherDisplay:10.37,2013-09-02 12:50:00,
2013-09-02 14:55:00,63.7,50.1,30.16,WNW,293,1.1,12.3,61,0.00,,,0.00,WUHU21636XXSP,2013-09-02 12:55:00,
2013-09-02 15:00:00,63.7,50.0,30.16,WNW,292,1.0,13.0,61,0.00,BKN,,0.00,WeatherDisplay:10.37,2013-09-02 13:00:00,
2013-09-02 15:05:00,63.9,49.9,30.17,NW,315,4.5,4.5,60,0.00,,,0.00,WUHU21636XXSP,2013-09-02 13:05:00,
2013-09-02 15:10:00,63.9,49.7,30.16,NW,317,2.0,5.0,60,0.00,BKN,,0.00,WeatherDisplay:10.37,2013-09-02 13:10:00,
2013-09-02 15:15:00,64.0,50.0,30.17,WNW,293,2.2,4.5,60,0.00,,,0.00,WUHU21636XXSP,2013-09-02 13:15:00,
2013-09-02 15:20:00,64.0,50.0,30.17,NW,315,3.4,3.4,60,0.00,,,0.00,WUHU21636XXSP,2013-09-02 13:20:00,
2013-09-02 15:25:00,64.0,50.0,30.17,WNW,293,4.7,4.7,60,0.00,,,0.00,WUHU21636XXSP,2013-09-02 13:25:00,
2013-09-02 15:30:00,64.0,49.9,30.17,WNW,302,5.0,5.0,60,0.00,SCT,,0.00,WeatherDisplay:10.37,2013-09-02 13:30:00,
2013-09-02 15:35:00,63.7,50.1,30.17,NW,315,7.6,9.8,61,0.00,,,0.00,WUHU21636XXSP,2013-09-02 13:35:00,
2013-09-02 15:40:00,63.5,50.2,30.16,WNW,301,3.0,10.0,62,0.00,SCT,,0.00,WeatherDisplay:10.37,2013-09-02 13:40:00,
2013-09-02 15:45:00,63.5,50.4,30.17,NW,315,6.5,10.1,62,0.00,,,0.00,WUHU21636XXSP,2013-09-02 13:45:00,
2013-09-02 15:50:00,63.5,50.2,30.17,NW,308,7.0,10.0,62,0.00,BKN,,0.00,WeatherDisplay:10.37,2013-09-02 13:50:00,
2013-09-02 15:55:00,63.3,50.6,30.18,WNW,293,2.0,11.4,63,0.00,,,0.00,WUHU21636XXSP,2013-09-02 13:55:00,
2013-09-02 16:00:00,63.3,50.5,30.17,WNW,298,2.0,12.0,63,0.00,BKN,,0.00,WeatherDisplay:10.37,2013-09-02 14:00:00,
2013-09-02 16:05:00,63.1,50.9,30.17,WNW,293,4.0,8.9,64,0.00,,,0.00,WUHU21636XXSP,2013-09-02 14:05:00,
2013-09-02 16:10:00,62.4,50.6,30.18,WNW,293,4.7,8.9,65,0.00,,,0.00,WUHU21636XXSP,2013-09-02 14:10:00,
2013-09-02 16:11:00,63.1,50.8,30.17,WNW,283,3.0,9.0,64,0.00,BKN,,0.00,WeatherDisplay:10.37,2013-09-02 14:11:00,
2013-09-02 16:15:00,62.2,51.3,30.18,WNW,293,10.1,17.4,67,0.00,,,0.00,WUHU21636XXSP,2013-09-02 14:15:00,
2013-09-02 16:20:00,62.2,51.1,30.17,WNW,292,10.0,17.0,67,0.00,BKN,,0.00,WeatherDisplay:10.37,2013-09-02 14:20:00,
2013-09-02 16:25:00,61.7,51.2,30.17,NW,315,3.6,17.4,68,0.00,,,0.00,WUHU21636XXSP,2013-09-02 14:25:00,
2013-09-02 16:30:00,61.5,51.4,30.17,WNW,293,0.0,3.6,69,0.00,,,0.00,WUHU21636XXSP,2013-09-02 14:30:00,
2013-09-02 16:31:00,61.7,51.0,30.17,NW,309,3.0,4.0,68,0.00,BKN,,0.00,WeatherDisplay:10.37,2013-09-02 14:31:00,
2013-09-02 16:35:00,61.5,51.4,30.17,WNW,293,2.0,3.6,69,0.00,,,0.00,WUHU21636XXSP,2013-09-02 14:35:00,
2013-09-02 16:40:00,61.5,51.3,30.16,WNW,296,2.0,2.0,69,0.00,BKN,,0.00,WeatherDisplay:10.37,2013-09-02 14:40:00,
2013-09-02 16:45:00,61.3,51.2,30.16,NW,315,3.6,9.2,69,0.00,,,0.00,WUHU21636XXSP,2013-09-02 14:45:00,
2013-09-02 16:50:00,61.3,51.2,30.16,WNW,293,2.0,9.2,69,0.00,,,0.00,WUHU21636XXSP,2013-09-02 14:50:00,
2013-09-02 16:55:00,61.3,51.6,30.16,WNW,293,0.4,3.6,70,0.00,,,0.00,WUHU21636XXSP,2013-09-02 14:55:00,
2013-09-02 17:00:00,61.3,51.6,30.16,WNW,293,2.5,2.5,70,0.00,,,0.00,WUHU21636XXSP,2013-09-02 15:00:00,
2013-09-02 17:01:00,61.3,51.5,30.15,WNW,298,0.0,9.0,70,0.00,-RA,,0.00,WeatherDisplay:10.37,2013-09-02 15:01:00,
2013-09-02 17:05:00,61.3,51.6,30.16,WNW,293,2.5,2.5,70,0.00,,,0.00,WUHU21636XXSP,2013-09-02 15:05:00,
2013-09-02 17:10:00,61.3,51.5,30.15,WNW,292,2.0,2.0,70,0.00,OVC,,0.00,WeatherDisplay:10.37,2013-09-02 15:10:00,
2013-09-02 17:15:00,61.3,51.6,30.16,NW,315,2.5,2.5,70,0.00,,,0.00,WUHU21636XXSP,2013-09-02 15:15:00,
2013-09-02 17:20:00,61.3,51.5,30.15,NW,309,2.0,2.0,70,0.00,OVC,,0.00,WeatherDisplay:10.37,2013-09-02 15:20:00,
2013-09-02 17:25:00,61.5,51.4,30.16,WNW,293,0.0,2.5,69,0.00,,,0.00,WUHU21636XXSP,2013-09-02 15:25:00,
2013-09-02 17:30:00,61.9,51.6,30.15,NW,306,2.0,2.0,69,0.00,OVC,,0.00,WeatherDisplay:10.37,2013-09-02 15:30:00,
2013-09-02 17:35:00,61.9,51.4,30.16,SE,135,1.3,2.2,68,0.00,,,0.00,WUHU21636XXSP,2013-09-02 15:35:00,
2013-09-02 17:40:00,61.9,51.8,30.16,NW,315,0.0,2.2,69,0.00,,,0.00,WUHU21636XXSP,2013-09-02 15:40:00,
2013-09-02 17:41:00,61.9,51.2,30.15,West,264,1.0,2.0,68,0.00,BKN,,0.00,WeatherDisplay:10.37,2013-09-02 15:41:00,
2013-09-02 17:45:00,61.9,51.4,30.16,ESE,113,0.4,1.3,68,0.00,,,0.00,WUHU21636XXSP,2013-09-02 15:45:00,
2013-09-02 17:50:00,62.1,52.0,30.16,WNW,293,1.1,1.1,69,0.00,,,0.00,WUHU21636XXSP,2013-09-02 15:50:00,
2013-09-02 17:55:00,61.9,52.2,30.16,WNW,293,1.1,1.1,70,0.00,,,0.00,WUHU21636XXSP,2013-09-02 15:55:00,
2013-09-02 18:00:00,61.5,52.4,30.16,WNW,292,1.0,1.0,72,0.00,BKN,,0.00,WeatherDisplay:10.37,2013-09-02 16:00:00,
2013-09-02 18:05:00,61.3,52.7,30.17,WNW,293,0.7,1.1,73,0.00,,,0.00,WUHU21636XXSP,2013-09-02 16:05:00,
2013-09-02 18:10:00,61.3,52.6,30.17,WNW,292,1.0,1.0,73,0.00,SCT,,0.00,WeatherDisplay:10.37,2013-09-02 16:10:00,
2013-09-02 18:15:00,61.0,52.8,30.17,WNW,293,3.6,3.6,74,0.00,,,0.00,WUHU21636XXSP,2013-09-02 16:15:00,
2013-09-02 18:20:00,61.0,52.6,30.17,WNW,292,3.0,4.0,74,0.00,-RA,,0.00,WeatherDisplay:10.37,2013-09-02 16:20:00,
2013-09-02 18:25:00,61.3,52.3,30.17,NW,315,2.5,3.6,72,0.00,,,0.00,WUHU21636XXSP,2013-09-02 16:25:00,
2013-09-02 18:30:00,61.3,52.2,30.16,NW,304,1.0,3.0,72,0.00,-RA,,0.00,WeatherDisplay:10.37,2013-09-02 16:30:00,
2013-09-02 18:35:00,61.3,52.7,30.17,WNW,293,1.8,2.5,73,0.00,,,0.00,WUHU21636XXSP,2013-09-02 16:35:00,
2013-09-02 18:40:00,61.2,52.8,30.16,WNW,303,2.0,2.0,74,0.00,-RA,,0.00,WeatherDisplay:10.37,2013-09-02 16:40:00,
2013-09-02 18:45:00,60.8,52.6,30.16,NW,315,0.0,1.8,74,0.00,,,0.00,WUHU21636XXSP,2013-09-02 16:45:00,
2013-09-02 18:50:00,60.8,52.5,30.16,WNW,301,0.0,2.0,74,0.00,-RA,,0.00,WeatherDisplay:10.37,2013-09-02 16:50:00,
2013-09-02 18:55:00,60.4,52.9,30.16,WNW,293,5.4,5.4,76,0.00,,,0.00,WUHU21636XXSP,2013-09-02 16:55:00,
2013-09-02 19:00:00,60.4,52.8,30.16,WNW,294,1.0,6.0,76,0.00,-RA,,0.00,WeatherDisplay:10.37,2013-09-02 17:00:00,
2013-09-02 19:05:00,60.4,52.9,30.16,NW,315,1.1,5.4,76,0.00,,,0.00,WUHU21636XXSP,2013-09-02 17:05:00,
2013-09-02 19:10:00,60.4,52.8,30.16,WNW,303,1.0,1.0,76,0.00,-RA,,0.00,WeatherDisplay:10.37,2013-09-02 17:10:00,
2013-09-02 19:15:00,60.4,52.9,30.17,WNW,293,3.4,3.4,76,0.00,,,0.00,WUHU21636XXSP,2013-09-02 17:15:00,
2013-09-02 19:20:00,60.4,52.8,30.16,WNW,303,3.0,3.0,76,0.00,-RA,,0.00,WeatherDisplay:10.37,2013-09-02 17:20:00,
2013-09-02 19:25:00,60.4,52.9,30.17,WNW,293,5.6,6.7,76,0.00,,,0.00,WUHU21636XXSP,2013-09-02 17:25:00,
2013-09-02 19:30:00,60.3,52.7,30.16,WNW,295,3.0,7.0,76,0.00,-RA,,0.00,WeatherDisplay:10.37,2013-09-02 17:30:00,
2013-09-02 19:35:00,60.1,53.0,30.17,WNW,293,3.4,6.7,77,0.00,,,0.00,WUHU21636XXSP,2013-09-02 17:35:00,
2013-09-02 19:40:00,60.1,52.8,30.16,WNW,301,2.0,3.0,77,0.00,-RA,,0.00,WeatherDisplay:10.37,2013-09-02 17:40:00,
2013-09-02 19:45:00,60.1,53.0,30.16,NW,315,1.1,3.4,77,0.00,,,0.00,WUHU21636XXSP,2013-09-02 17:45:00,
2013-09-02 19:50:00,60.1,52.8,30.15,WNW,301,1.0,2.0,77,0.00,BKN,,0.00,WeatherDisplay:10.37,2013-09-02 17:50:00,
2013-09-02 19:55:00,60.1,53.0,30.16,WNW,293,3.4,4.7,77,0.00,,,0.00,WUHU21636XXSP,2013-09-02 17:55:00,
2013-09-02 20:00:00,60.1,52.8,30.15,WNW,292,3.0,5.0,77,0.00,BKN,,0.00,WeatherDisplay:10.37,2013-09-02 18:00:00,
2013-09-02 20:05:00,60.4,52.9,30.16,WNW,293,5.6,5.6,76,0.00,,,0.00,WUHU21636XXSP,2013-09-02 18:05:00,
2013-09-02 20:10:00,60.4,52.8,30.16,WNW,292,1.0,6.0,76,0.00,BKN,,0.00,WeatherDisplay:10.37,2013-09-02 18:10:00,
2013-09-02 20:15:00,60.6,53.1,30.17,WNW,293,2.9,7.4,76,0.00,,,0.00,WUHU21636XXSP,2013-09-02 18:15:00,
2013-09-02 20:20:00,60.6,53.1,30.17,NNW,338,4.0,7.4,76,0.00,,,0.00,WUHU21636XXSP,2013-09-02 18:20:00,
2013-09-02 20:21:00,60.6,53.0,30.16,WNW,298,3.0,7.0,76,0.00,BKN,,0.00,WeatherDisplay:10.37,2013-09-02 18:21:00,
2013-09-02 20:25:00,60.8,53.3,30.17,NW,315,1.3,7.4,76,0.00,,,0.00,WUHU21636XXSP,2013-09-02 18:25:00,
2013-09-02 20:30:00,61.0,53.5,30.16,WNW,293,3.1,4.0,76,0.00,,,0.00,WUHU21636XXSP,2013-09-02 18:30:00,
2013-09-02 20:31:00,60.8,53.2,30.16,NNW,327,1.0,4.0,76,0.00,BKN,,0.00,WeatherDisplay:10.37,2013-09-02 18:31:00,
2013-09-02 20:35:00,61.0,53.5,30.16,NNW,338,0.0,3.1,76,0.00,,,0.00,WUHU21636XXSP,2013-09-02 18:35:00,
2013-09-02 20:40:00,61.0,53.4,30.16,NW,316,0.0,3.0,76,0.00,BKN,,0.00,WeatherDisplay:10.37,2013-09-02 18:40:00,
2013-09-02 20:45:00,60.8,53.3,30.17,WNW,293,3.8,11.9,76,0.00,,,0.00,WUHU21636XXSP,2013-09-02 18:45:00,
2013-09-02 20:50:00,60.8,53.2,30.16,WNW,295,3.0,12.0,76,0.00,BKN,,0.00,WeatherDisplay:10.37,2013-09-02 18:50:00,
2013-09-02 20:55:00,60.8,53.3,30.17,NNW,338,2.7,3.8,76,0.00,,,0.00,WUHU21636XXSP,2013-09-02 18:55:00,
2013-09-02 21:00:00,60.8,53.2,30.16,NW,325,2.0,3.0,76,0.00,BKN,,0.00,WeatherDisplay:10.37,2013-09-02 19:00:00,
2013-09-02 21:05:00,60.8,53.3,30.17,WNW,293,0.7,3.6,76,0.00,,,0.00,WUHU21636XXSP,2013-09-02 19:05:00,
2013-09-02 21:10:00,60.6,53.0,30.16,WNW,297,5.0,5.0,76,0.00,BKN,,0.00,WeatherDisplay:10.37,2013-09-02 19:10:00,
2013-09-02 21:15:00,60.6,53.4,30.17,NW,315,1.1,4.9,77,0.00,,,0.00,WUHU21636XXSP,2013-09-02 19:15:00,
2013-09-02 21:20:00,60.6,53.4,30.16,NW,315,5.4,6.7,77,0.00,,,0.00,WUHU21636XXSP,2013-09-02 19:20:00,
2013-09-02 21:25:00,60.4,53.6,30.17,WNW,293,2.7,6.7,78,0.00,,,0.00,WUHU21636XXSP,2013-09-02 19:25:00,
2013-09-02 21:30:00,60.4,53.5,30.16,NW,307,2.0,7.0,78,0.00,BKN,,0.00,WeatherDisplay:10.37,2013-09-02 19:30:00,
2013-09-02 21:35:00,60.4,53.6,30.17,WNW,293,0.7,2.7,78,0.00,,,0.00,WUHU21636XXSP,2013-09-02 19:35:00,
2013-09-02 21:40:00,60.3,53.7,30.16,WNW,296,3.0,4.0,79,0.00,BKN,,0.00,WeatherDisplay:10.37,2013-09-02 19:40:00,
2013-09-02 21:45:00,60.3,53.8,30.16,WNW,293,2.2,3.6,79,0.00,,,0.00,WUHU21636XXSP,2013-09-02 19:45:00,
2013-09-02 21:50:00,60.4,53.9,30.16,WNW,303,2.0,4.0,79,0.00,OVC,,0.00,WeatherDisplay:10.37,2013-09-02 19:50:00,
2013-09-02 21:55:00,60.4,53.9,30.16,NW,315,5.4,6.3,79,0.00,,,0.00,WUHU21636XXSP,2013-09-02 19:55:00,
2013-09-02 22:00:00,60.6,53.8,30.17,NW,315,3.6,6.3,78,0.00,,,0.00,WUHU21636XXSP,2013-09-02 20:00:00,
2013-09-02 22:05:00,60.8,54.0,30.17,NW,315,3.8,6.3,78,0.00,,,0.00,WUHU21636XXSP,2013-09-02 20:05:00,
2013-09-02 22:10:00,61.0,54.1,30.16,NW,315,2.0,6.0,78,0.00,OVC,,0.00,WeatherDisplay:10.37,2013-09-02 20:10:00,
2013-09-02 22:15:00,61.2,54.4,30.17,WNW,293,1.3,3.8,78,0.00,,,0.00,WUHU21636XXSP,2013-09-02 20:15:00,
2013-09-02 22:20:00,61.3,54.5,30.17,WNW,293,2.0,2.0,78,0.00,,,0.00,WUHU21636XXSP,2013-09-02 20:20:00,
2013-09-02 22:21:00,61.3,54.4,30.16,NW,305,2.0,2.0,78,0.00,OVC,,0.00,WeatherDisplay:10.37,2013-09-02 20:21:00,
2013-09-02 22:25:00,61.5,54.3,30.17,WNW,293,6.0,8.9,77,0.00,,,0.00,WUHU21636XXSP,2013-09-02 20:25:00,
2013-09-02 22:30:00,61.5,54.2,30.16,WNW,292,6.0,9.0,77,0.00,OVC,,0.00,WeatherDisplay:10.37,2013-09-02 20:30:00,
2013-09-02 22:35:00,61.7,54.5,30.17,North,0,6.0,8.9,77,0.00,,,0.00,WUHU21636XXSP,2013-09-02 20:35:00,
2013-09-02 22:40:00,61.9,54.7,30.16,NW,315,8.3,11.2,77,0.00,,,0.00,WUHU21636XXSP,2013-09-02 20:40:00,
2013-09-02 22:45:00,61.9,54.7,30.16,WNW,293,2.7,11.2,77,0.00,,,0.00,WUHU21636XXSP,2013-09-02 20:45:00,
2013-09-02 22:50:00,61.9,54.6,30.16,NW,319,3.0,12.0,77,0.00,OVC,,0.00,WeatherDisplay:10.37,2013-09-02 20:50:00,
2013-09-02 22:55:00,61.9,54.7,30.17,WNW,293,4.9,4.9,77,0.00,,,0.00,WUHU21636XXSP,2013-09-02 20:55:00,
2013-09-02 23:00:00,61.9,54.6,30.16,WNW,292,5.0,5.0,77,0.00,OVC,,0.00,WeatherDisplay:10.37,2013-09-02 21:00:00,
2013-09-02 23:05:00,62.2,55.0,30.17,WNW,293,4.3,4.9,77,0.00,,,0.00,WUHU21636XXSP,2013-09-02 21:05:00,
2013-09-02 23:10:00,62.2,54.9,30.16,WNW,292,5.0,5.0,77,0.00,OVC,,0.00,WeatherDisplay:10.37,2013-09-02 21:10:00,
2013-09-02 23:15:00,62.2,55.0,30.17,WNW,293,2.9,5.8,77,0.00,,,0.00,WUHU21636XXSP,2013-09-02 21:15:00,
2013-09-02 23:20:00,62.2,55.0,30.17,NW,315,5.8,5.8,77,0.00,,,0.00,WUHU21636XXSP,2013-09-02 21:20:00,
2013-09-02 23:21:00,62.2,54.9,30.16,NW,305,6.0,6.0,77,0.00,BKN,,0.00,WeatherDisplay:10.37,2013-09-02 21:21:00,
2013-09-02 23:25:00,62.4,55.2,30.17,NW,315,1.8,5.8,77,0.00,,,0.00,WUHU21636XXSP,2013-09-02 21:25:00,
2013-09-02 23:30:00,62.4,55.2,30.17,NW,315,4.3,5.8,77,0.00,,,0.00,WUHU21636XXSP,2013-09-02 21:30:00,
2013-09-02 23:35:00,62.6,55.4,30.17,WNW,293,2.0,4.3,77,0.00,,,0.00,WUHU21636XXSP,2013-09-02 21:35:00,
2013-09-02 23:40:00,62.8,55.6,30.16,NW,315,3.1,4.3,77,0.00,,,0.00,WUHU21636XXSP,2013-09-02 21:40:00,
2013-09-02 23:45:00,62.8,55.6,30.16,WNW,293,3.4,3.4,77,0.00,,,0.00,WUHU21636XXSP,2013-09-02 21:45:00,
2013-09-02 23:50:00,62.8,55.5,30.16,WNW,297,6.0,6.0,77,0.00,OVC,,0.00,WeatherDisplay:10.37,2013-09-02 21:50:00,
2013-09-02 23:55:00,62.8,55.6,30.16,NW,315,2.9,6.3,77,0.00,,,0.00,WUHU21636XXSP,2013-09-02 21:55:00,